Glenwood, MN

1:52 AM CST on January 16, 2018 (GMT -0600)
Glenwood Municipal

Weather History for KGHW - January, 2013

Change the Weather History Date:

Friday, January 18, 2013

  Actual Average Record
Temperature  
Mean Temperature 24 °F -  
Max Temperature 33 °F 20 °F 42 °F (1981)
Min Temperature 14 °F 2 °F -35 °F (1967)
Degree Days  
Heating Degree Days 42    
Moisture  
Dew Point 21 °F    
Average Humidity 86    
Maximum Humidity 100    
Minimum Humidity 75    
Precipitation  
Precipitation 0.00 in - - ()
Sea Level Pressure  
Sea Level Pressure 29.82 in    
Wind  
Wind Speed 10 mph (SSW)    
Max Wind Speed 17 mph    
Max Gust Speed 18 mph    
Visibility 10 miles    
Events Snow    
Averages and records for this station are not official NWS values.
T = Trace of Precipitation, MM = Missing Value Source: NWS Daily Summary

Daily Weather History Graph

Daily Weather History Graph

Search for Another Location

Airport or City:

Trip Planner

Search our weather history database for the weather conditions in past years. The results will help you decide how hot, cold, wet, or windy it might be!

Date:

Astronomy

Jan. 18, 2013 Rise Set
Actual Time 7:55 AM CST 5:08 PM CST
Civil Twilight 7:22 AM CST 5:41 PM CST
Nautical Twilight 6:46 AM CST 6:17 PM CST
Astronomical Twilight 6:10 AM CST 6:53 PM CST
Moon 11:09 AM CST (1/18) 12:23 AM CST (1/18)
Length of Visible Light 10h 18m
Length of Day
9h 12m
Waxing Crescent, 47% of the Moon is Illuminated
Jan 18
Waxing Crescent
Jan 18
First Quarter
Jan 26
Full
Feb 3
Last Quarter
Feb 10
New

Hourly Weather History & Observations

Time (CST) Temp. Windchill Dew Point Humidity Pressure Visibility Wind Dir Wind Speed Gust Speed Precip Events Conditions
12:14 AM 14.0 °F 1.2 °F 10.4 °F 86% 30.15 in 2.5 mi SE 10.4 mph - N/A Snow Light Snow
12:33 AM 14.0 °F -0.2 °F 10.4 °F 86% 30.13 in 5.0 mi SE 12.7 mph - N/A Snow Light Snow
12:53 AM 14.0 °F 1.2 °F 10.4 °F 86% 30.10 in 10.0 mi SE 10.4 mph - N/A Snow Light Snow
1:14 AM 15.8 °F 2.7 °F 10.4 °F 79% 30.09 in 10.0 mi ESE 11.5 mph - N/A   Overcast
1:33 AM 15.8 °F 2.1 °F 10.4 °F 79% 30.08 in 10.0 mi ESE 12.7 mph - N/A   Overcast
1:53 AM 15.8 °F 2.7 °F 10.4 °F 79% 30.07 in 10.0 mi ESE 11.5 mph - N/A   Overcast
2:13 AM 15.8 °F 2.1 °F 10.4 °F 79% 30.05 in 10.0 mi ESE 12.7 mph - N/A   Overcast
2:33 AM 15.8 °F 2.1 °F 10.4 °F 79% 30.05 in 10.0 mi ESE 12.7 mph - N/A   Mostly Cloudy
2:54 AM 15.8 °F 2.1 °F 10.4 °F 79% 30.04 in 10.0 mi ESE 12.7 mph - N/A   Overcast
3:13 AM 15.8 °F 2.1 °F 10.4 °F 79% 30.03 in 10.0 mi ESE 12.7 mph - N/A   Mostly Cloudy
3:33 AM 15.8 °F 2.7 °F 12.2 °F 86% 30.00 in 10.0 mi ESE 11.5 mph - N/A   Mostly Cloudy
3:54 AM 15.8 °F 2.1 °F 12.2 °F 86% 29.98 in 10.0 mi SE 12.7 mph - N/A   Scattered Clouds
4:13 AM 17.6 °F 3.7 °F 12.2 °F 79% 29.96 in 10.0 mi SE 13.8 mph - N/A   Scattered Clouds
4:33 AM 17.6 °F 2.2 °F 12.2 °F 79% 29.93 in 10.0 mi SE 17.3 mph - N/A   Scattered Clouds
4:54 AM 17.6 °F 2.2 °F 14.0 °F 86% 29.91 in 10.0 mi SE 17.3 mph - N/A   Clear
5:13 AM 17.6 °F 4.3 °F 14.0 °F 86% 29.90 in 10.0 mi SSE 12.7 mph - N/A   Scattered Clouds
5:33 AM 19.4 °F 5.5 °F 15.8 °F 86% 29.88 in 10.0 mi SSE 15.0 mph - N/A   Scattered Clouds
5:54 AM 19.4 °F 6.0 °F 15.8 °F 86% 29.86 in 10.0 mi SSE 13.8 mph - N/A   Clear
6:13 AM 19.4 °F 6.6 °F 17.6 °F 93% 29.84 in 10.0 mi SSE 12.7 mph - N/A   Clear
6:33 AM 21.2 °F 9.5 °F 17.6 °F 86% 29.84 in 10.0 mi SSE 11.5 mph - N/A   Scattered Clouds
6:54 AM 21.2 °F 10.9 °F 19.4 °F 93% 29.83 in 10.0 mi SSE 9.2 mph - N/A   Overcast
7:13 AM 21.2 °F 10.9 °F 19.4 °F 93% 29.81 in 10.0 mi SSE 9.2 mph - N/A   Scattered Clouds
7:33 AM 21.2 °F 10.9 °F 19.4 °F 93% 29.79 in 10.0 mi SSE 9.2 mph - N/A   Scattered Clouds
7:54 AM 21.2 °F 12.6 °F 19.4 °F 93% 29.79 in 10.0 mi South 6.9 mph - N/A   Mostly Cloudy
8:13 AM 19.4 °F 9.5 °F 19.4 °F 100% 29.78 in 7.0 mi SSE 8.1 mph - N/A   Scattered Clouds
8:33 AM 19.4 °F 10.4 °F 19.4 °F 100% 29.78 in 7.0 mi South 6.9 mph - N/A   Clear
8:54 AM 19.4 °F 14.3 °F 17.6 °F 93% 29.79 in 7.0 mi South 3.5 mph - N/A   Clear
9:13 AM 21.2 °F 13.6 °F 19.4 °F 93% 29.77 in 5.0 mi South 5.8 mph - N/A   Scattered Clouds
9:34 AM 24.8 °F - 21.2 °F 86% 29.77 in 7.0 mi Calm Calm - N/A   Scattered Clouds
9:53 AM 24.8 °F 19.1 °F 21.2 °F 86% 29.77 in 7.0 mi South 4.6 mph - N/A   Clear
10:13 AM 23.0 °F 15.8 °F 21.2 °F 93% 29.75 in 10.0 mi South 5.8 mph - N/A   Clear
10:34 AM 28.4 °F 20.4 °F 23.0 °F 80% 29.76 in 10.0 mi SSW 8.1 mph - N/A   Clear
10:53 AM 28.4 °F 21.2 °F 24.8 °F 86% 29.76 in 10.0 mi SW 6.9 mph - N/A   Clear
11:13 AM 30.2 °F 24.3 °F 24.8 °F 80% 29.74 in 10.0 mi SSW 5.8 mph - N/A   Clear
11:34 AM 32.0 °F 24.2 °F 24.8 °F 75% 29.74 in 10.0 mi WSW 9.2 mph - N/A   Clear
11:53 AM 33.8 °F 27.0 °F 26.6 °F 75% 29.73 in 10.0 mi SW 8.1 mph - N/A   Clear
12:13 PM 33.8 °F 25.8 °F 26.6 °F 75% 29.72 in 10.0 mi West 10.4 mph - N/A   Clear
12:34 PM 33.8 °F 27.0 °F 26.6 °F 75% 29.70 in 10.0 mi SW 8.1 mph - N/A   Clear
12:53 PM 33.8 °F 25.3 °F 26.6 °F 75% 29.71 in 10.0 mi West 11.5 mph - N/A   Clear
1:13 PM 33.8 °F 24.3 °F 26.6 °F 75% 29.70 in 10.0 mi West 13.8 mph - N/A   Clear
1:34 PM 33.8 °F 24.8 °F 26.6 °F 75% 29.70 in 10.0 mi West 12.7 mph - N/A   Clear
1:53 PM 33.8 °F 25.3 °F 26.6 °F 75% 29.70 in 10.0 mi West 11.5 mph 16.1 mph N/A   Clear
2:13 PM 33.8 °F 24.8 °F 26.6 °F 75% 29.70 in 10.0 mi West 12.7 mph - N/A   Clear
2:34 PM 33.8 °F 23.9 °F 26.6 °F 75% 29.71 in 10.0 mi West 15.0 mph 18.4 mph N/A   Clear
2:53 PM 33.8 °F 23.9 °F 26.6 °F 75% 29.71 in 10.0 mi West 15.0 mph - N/A   Clear
3:13 PM 33.8 °F 24.3 °F 26.6 °F 75% 29.71 in 10.0 mi West 13.8 mph - N/A   Clear
3:34 PM 33.8 °F 24.8 °F 26.6 °F 75% 29.71 in 10.0 mi West 12.7 mph - N/A   Clear
3:53 PM 33.8 °F 23.5 °F 26.6 °F 75% 29.72 in 10.0 mi West 16.1 mph - N/A   Clear
4:14 PM 32.0 °F 20.8 °F 26.6 °F 80% 29.74 in 10.0 mi WNW 17.3 mph - N/A   Clear
4:33 PM 30.2 °F 21.3 °F 26.6 °F 86% 29.74 in 10.0 mi West 10.4 mph - N/A   Clear
4:53 PM 30.2 °F 20.8 °F 26.6 °F 86% 29.74 in 10.0 mi West 11.5 mph - N/A   Clear
5:14 PM 30.2 °F 21.9 °F 26.6 °F 86% 29.75 in 10.0 mi West 9.2 mph - N/A   Clear
5:33 PM 30.2 °F 21.9 °F 26.6 °F 86% 29.75 in 10.0 mi West 9.2 mph - N/A   Clear
5:53 PM 28.4 °F 20.4 °F 26.6 °F 93% 29.76 in 10.0 mi West 8.1 mph - N/A   Clear
6:14 PM 28.4 °F 21.2 °F 24.8 °F 86% 29.76 in 10.0 mi West 6.9 mph - N/A   Clear
6:33 PM 28.4 °F 20.4 °F 24.8 °F 86% 29.76 in 10.0 mi West 8.1 mph - N/A   Clear
6:53 PM 28.4 °F 19.7 °F 24.8 °F 86% 29.76 in 10.0 mi West 9.2 mph - N/A   Clear
7:14 PM 26.6 °F 17.5 °F 24.8 °F 93% 29.76 in 10.0 mi West 9.2 mph - N/A   Scattered Clouds
7:33 PM 26.6 °F 18.2 °F 24.8 °F 93% 29.76 in 10.0 mi West 8.1 mph - N/A   Clear
7:53 PM 24.8 °F 16.1 °F 23.0 °F 93% 29.75 in 10.0 mi SW 8.1 mph - N/A   Clear
8:14 PM 24.8 °F 17.9 °F 23.0 °F 93% 29.74 in 10.0 mi SSW 5.8 mph - N/A   Clear
8:33 PM 24.8 °F 16.1 °F 23.0 °F 93% 29.75 in 10.0 mi WSW 8.1 mph - N/A   Clear
8:53 PM 24.8 °F 16.9 °F 24.8 °F 100% 29.76 in 10.0 mi West 6.9 mph - N/A   Clear
9:14 PM 24.8 °F 15.3 °F 24.8 °F 100% 29.77 in 10.0 mi West 9.2 mph - N/A   Clear
9:33 PM 24.8 °F 15.3 °F 24.8 °F 100% 29.76 in 10.0 mi WSW 9.2 mph - N/A   Clear
9:53 PM 26.6 °F 18.2 °F 26.6 °F 100% 29.75 in 10.0 mi West 8.1 mph - N/A   Clear
10:14 PM 26.6 °F 19.1 °F 24.8 °F 93% 29.75 in 10.0 mi West 6.9 mph - N/A   Clear
10:33 PM 26.6 °F 20.0 °F 24.8 °F 93% 29.75 in 7.0 mi West 5.8 mph - N/A   Clear
10:53 PM 26.6 °F 21.2 °F 26.6 °F 100% 29.74 in 10.0 mi West 4.6 mph - N/A   Clear
11:14 PM 26.6 °F - 26.6 °F 100% 29.73 in 10.0 mi Calm Calm - N/A   Clear
11:33 PM 26.6 °F - 26.6 °F 100% 29.72 in 10.0 mi Calm Calm - N/A   Mostly Cloudy
11:53 PM 26.6 °F - 26.6 °F 100% 29.72 in 10.0 mi Calm Calm - N/A   Mostly Cloudy